createdAt,value
2023-07-04T00:01:58.374Z,4.43
2023-07-04T00:04:25.065Z,4.20
2023-07-04T00:06:52.285Z,4.20
2023-07-04T00:09:19.237Z,4.55
2023-07-04T00:11:45.817Z,4.00
2023-07-04T00:14:12.723Z,4.18
2023-07-04T00:16:39.395Z,4.60
2023-07-04T00:19:07.717Z,3.85
2023-07-04T00:21:34.716Z,4.60
2023-07-04T00:24:01.621Z,4.25
2023-07-04T00:26:29.212Z,4.22
2023-07-04T00:28:55.924Z,4.28
2023-07-04T00:31:24.932Z,4.35
2023-07-04T00:33:52.929Z,4.53
2023-07-04T00:36:20.816Z,4.07
2023-07-04T00:38:50.550Z,3.80
2023-07-04T00:41:22.864Z,4.15
2023-07-04T00:44:08.822Z,4.43
2023-07-04T00:46:46.380Z,3.97
2023-07-04T00:49:27.650Z,3.90
2023-07-04T00:51:59.953Z,4.32
2023-07-04T00:54:30.887Z,4.20
2023-07-04T00:57:05.969Z,4.40
2023-07-04T00:59:35.606Z,4.22
2023-07-04T01:02:02.323Z,3.90
2023-07-04T01:04:33.392Z,3.97
2023-07-04T01:07:17.789Z,4.15
2023-07-04T01:09:51.736Z,4.07
2023-07-04T01:12:19.576Z,4.35
2023-07-04T01:14:48.980Z,3.90
2023-07-04T01:17:15.728Z,3.80
2023-07-04T01:19:43.086Z,4.20
2023-07-04T01:22:21.961Z,4.05
2023-07-04T01:25:07.957Z,3.88
2023-07-04T01:27:36.922Z,4.25
2023-07-04T01:32:36.773Z,3.90
2023-07-04T01:35:05.900Z,3.97
2023-07-04T01:37:32.579Z,4.25
2023-07-04T01:40:01.232Z,4.00
2023-07-04T01:42:37.844Z,3.92
2023-07-04T01:45:07.141Z,4.25
2023-07-04T01:47:36.029Z,4.00
2023-07-04T01:50:03.987Z,3.75
2023-07-04T01:52:31.324Z,4.38
2023-07-04T01:54:59.001Z,4.75
2023-07-04T01:57:26.392Z,4.72
2023-07-04T01:59:53.308Z,3.95
2023-07-04T02:02:20.103Z,4.40
2023-07-04T02:04:47.903Z,4.90
2023-07-04T02:07:14.644Z,4.22
2023-07-04T02:09:41.294Z,3.97
2023-07-04T02:12:08.228Z,4.15
2023-07-04T02:14:34.869Z,3.95
2023-07-04T02:17:01.582Z,4.65
2023-07-04T02:19:28.358Z,4.50
2023-07-04T02:21:54.992Z,3.95
2023-07-04T02:24:21.764Z,4.50
2023-07-04T02:26:48.351Z,3.95
2023-07-04T02:29:14.946Z,3.72
2023-07-04T02:31:41.530Z,3.90
2023-07-04T02:34:08.487Z,4.22
2023-07-04T02:36:35.238Z,4.28
2023-07-04T02:39:02.033Z,4.40
2023-07-04T02:41:30.841Z,4.35
2023-07-04T02:43:58.424Z,3.92
2023-07-04T02:46:25.192Z,4.35
2023-07-04T02:48:51.968Z,3.90
2023-07-04T02:51:18.658Z,3.85
2023-07-04T02:53:45.409Z,3.72
2023-07-04T02:56:12.770Z,4.60
2023-07-04T03:01:06.388Z,4.05
2023-07-04T03:03:33.297Z,3.65
2023-07-04T03:06:02.010Z,3.78
2023-07-04T03:08:28.732Z,4.03
2023-07-04T03:10:55.618Z,4.13
2023-07-04T03:13:22.553Z,3.90
2023-07-04T03:15:49.263Z,4.18
2023-07-04T03:18:16.087Z,3.88
2023-07-04T03:20:42.823Z,4.05
2023-07-04T03:23:09.635Z,3.42
2023-07-04T03:25:36.633Z,3.95
2023-07-04T03:28:03.367Z,3.78
2023-07-04T03:30:30.023Z,4.30
2023-07-04T03:32:56.819Z,4.20
2023-07-04T03:35:23.548Z,4.00
2023-07-04T03:37:50.146Z,3.75
2023-07-04T03:40:16.758Z,4.25
2023-07-04T03:42:43.576Z,4.53
2023-07-04T03:45:10.975Z,4.10
2023-07-04T03:50:05.113Z,4.10
2023-07-04T03:52:31.869Z,4.45
2023-07-04T03:54:58.531Z,4.40
2023-07-04T03:57:25.197Z,4.72
2023-07-04T03:59:51.721Z,4.13
2023-07-04T04:02:18.295Z,3.95
2023-07-04T04:04:45.153Z,3.83
2023-07-04T04:07:12.217Z,3.63
2023-07-04T04:09:39.690Z,4.18
2023-07-04T04:12:08.617Z,4.07
2023-07-04T04:14:36.622Z,4.30
2023-07-04T04:17:04.452Z,4.32
2023-07-04T04:19:31.198Z,4.70
2023-07-04T04:21:57.982Z,4.40
2023-07-04T04:24:25.116Z,4.20
2023-07-04T04:26:51.704Z,4.38
2023-07-04T04:29:19.238Z,4.60
2023-07-04T04:31:47.130Z,3.85
2023-07-04T04:34:14.867Z,3.83
2023-07-04T04:36:41.458Z,4.18
2023-07-04T04:39:08.242Z,4.50
2023-07-04T04:41:35.124Z,4.78
2023-07-04T04:44:04.033Z,4.25
2023-07-04T04:46:30.795Z,4.22
2023-07-04T04:48:59.711Z,4.85
2023-07-04T04:51:26.429Z,4.28
2023-07-04T04:53:53.420Z,4.10
2023-07-04T04:56:20.203Z,4.40
2023-07-04T04:58:46.981Z,4.53
2023-07-04T05:01:24.287Z,4.50
2023-07-04T05:03:56.320Z,4.70
2023-07-04T05:06:25.738Z,4.50
2023-07-04T05:08:52.889Z,4.65
2023-07-04T05:11:20.580Z,4.15
2023-07-04T05:13:47.862Z,4.20
2023-07-04T05:16:17.735Z,3.90
2023-07-04T05:18:45.153Z,3.85
2023-07-04T05:23:47.883Z,4.28
2023-07-04T05:26:23.225Z,4.40
2023-07-04T05:28:52.611Z,4.35
2023-07-04T05:31:22.546Z,4.47
2023-07-04T05:33:49.793Z,5.03
2023-07-04T05:36:17.744Z,4.95
2023-07-04T05:38:45.164Z,4.40
2023-07-04T05:43:40.681Z,3.95
2023-07-04T05:48:35.783Z,4.20
2023-07-04T05:51:08.773Z,3.72
2023-07-04T05:53:37.465Z,4.43
2023-07-04T05:56:14.007Z,3.95
2023-07-04T05:58:46.388Z,4.00
2023-07-04T06:01:20.048Z,4.82
2023-07-04T06:03:46.715Z,3.75
2023-07-04T06:06:22.598Z,3.85
2023-07-04T06:08:50.550Z,4.40
2023-07-04T06:11:18.212Z,3.95
2023-07-04T06:13:45.191Z,4.40
2023-07-04T06:16:12.496Z,4.40
2023-07-04T06:18:40.311Z,4.45
2023-07-04T06:21:10.567Z,4.10
2023-07-04T06:23:37.824Z,3.92
2023-07-04T06:26:06.400Z,3.88
2023-07-04T06:28:34.386Z,4.65
2023-07-04T06:31:04.944Z,4.10
2023-07-04T06:33:32.342Z,4.53
2023-07-04T06:35:59.514Z,4.30
2023-07-04T06:38:26.379Z,4.75
2023-07-04T06:41:01.078Z,4.80
2023-07-04T06:43:29.841Z,4.65
2023-07-04T06:45:57.047Z,4.55
2023-07-04T06:48:24.705Z,4.18
2023-07-04T06:51:06.023Z,4.03
2023-07-04T06:53:34.538Z,4.03
2023-07-04T06:56:08.757Z,4.45
2023-07-04T06:58:38.332Z,4.40
2023-07-04T07:01:05.543Z,5.40
2023-07-04T07:03:32.711Z,4.43
2023-07-04T07:06:03.728Z,4.05
2023-07-04T07:08:30.420Z,4.65
2023-07-04T07:10:59.761Z,4.55
2023-07-04T07:13:27.251Z,5.10
2023-07-04T07:16:08.692Z,5.05
2023-07-04T07:18:36.384Z,5.18
2023-07-04T07:21:04.630Z,4.97
2023-07-04T07:23:34.517Z,4.45
2023-07-04T07:26:03.287Z,4.22
2023-07-04T07:28:35.860Z,4.35
2023-07-04T07:31:07.717Z,4.13
2023-07-04T07:33:36.426Z,4.03
2023-07-04T07:36:16.879Z,4.40
2023-07-04T07:38:44.155Z,4.80
2023-07-04T07:41:11.049Z,4.93
2023-07-04T07:43:39.795Z,4.20
2023-07-04T07:46:13.909Z,4.55
2023-07-04T07:48:41.134Z,4.45
2023-07-04T07:53:38.177Z,4.05
2023-07-04T07:56:06.556Z,4.00
2023-07-04T07:58:34.169Z,4.07
2023-07-04T08:01:01.397Z,4.20
2023-07-04T08:03:28.626Z,4.25
2023-07-04T08:08:21.802Z,3.72
2023-07-04T08:10:48.524Z,3.35
2023-07-04T08:13:15.393Z,4.13
2023-07-04T08:15:42.057Z,3.53
2023-07-04T08:18:11.261Z,3.85
2023-07-04T08:20:38.501Z,3.83
2023-07-04T08:23:05.527Z,3.70
2023-07-04T08:25:32.279Z,3.47
2023-07-04T08:28:01.281Z,3.50
2023-07-04T08:30:27.925Z,3.70
2023-07-04T08:32:54.743Z,3.38
2023-07-04T08:35:21.796Z,3.20
2023-07-04T08:37:48.523Z,3.40
2023-07-04T08:40:17.745Z,3.47
2023-07-04T08:42:45.152Z,3.17
2023-07-04T08:47:44.936Z,3.45
2023-07-04T08:50:32.898Z,3.65
2023-07-04T08:53:23.805Z,3.38
2023-07-04T08:56:12.463Z,3.60
2023-07-04T08:58:53.787Z,3.63
2023-07-04T09:01:38.742Z,3.63
2023-07-04T09:04:22.686Z,3.20
2023-07-04T09:07:05.212Z,3.40
2023-07-04T09:09:50.185Z,4.15
2023-07-04T09:12:17.270Z,3.05
2023-07-04T09:14:57.342Z,3.33
2023-07-04T09:18:22.264Z,3.08
2023-07-04T09:21:00.942Z,3.30
2023-07-04T09:23:27.681Z,3.22
2023-07-04T09:25:57.456Z,3.40
2023-07-04T09:28:24.999Z,3.20
2023-07-04T09:30:59.655Z,3.13
2023-07-04T09:33:29.322Z,3.28
2023-07-04T09:35:58.113Z,3.45
2023-07-04T09:38:25.173Z,2.90
2023-07-04T09:40:55.952Z,3.42
2023-07-04T09:43:31.423Z,3.25
2023-07-04T09:46:30.745Z,3.33
2023-07-04T09:49:24.931Z,3.53
2023-07-04T09:52:00.510Z,3.05
2023-07-04T09:54:27.998Z,3.75
2023-07-04T09:56:55.345Z,2.50
2023-07-04T10:01:59.954Z,2.95
2023-07-04T10:04:37.364Z,2.80
2023-07-04T10:07:12.159Z,3.33
2023-07-04T10:10:05.445Z,2.92
2023-07-04T10:12:40.902Z,3.20
2023-07-04T10:15:08.296Z,2.63
2023-07-04T10:20:14.280Z,3.30
2023-07-04T10:22:49.303Z,2.65
2023-07-04T10:25:19.056Z,3.00
2023-07-04T10:27:50.333Z,2.88
2023-07-04T10:30:22.606Z,2.50
2023-07-04T10:32:55.011Z,2.60
2023-07-04T10:35:26.283Z,2.85
2023-07-04T10:38:02.821Z,2.95
2023-07-04T10:40:30.116Z,3.20
2023-07-04T10:43:06.875Z,3.20
2023-07-04T10:45:34.178Z,3.10
2023-07-04T10:48:10.861Z,2.78
2023-07-04T10:50:49.987Z,2.70
2023-07-04T10:53:18.892Z,2.85
2023-07-04T10:56:14.663Z,2.95
2023-07-04T10:58:45.999Z,2.53
2023-07-04T11:01:38.953Z,3.08
2023-07-04T11:04:21.378Z,2.75
2023-07-04T11:07:01.493Z,2.83
2023-07-04T11:09:34.932Z,3.05
2023-07-04T11:14:37.429Z,2.47
2023-07-04T11:17:08.483Z,2.55
2023-07-04T11:19:35.348Z,2.83
2023-07-04T11:22:02.434Z,2.67
2023-07-04T11:24:38.885Z,2.97
2023-07-04T11:27:15.992Z,3.05
2023-07-04T11:29:55.273Z,2.70
2023-07-04T11:32:28.721Z,2.50
2023-07-04T11:37:33.702Z,2.38
2023-07-04T11:40:11.280Z,2.85
2023-07-04T11:42:48.592Z,2.80
2023-07-04T11:45:18.352Z,2.83
2023-07-04T11:48:04.083Z,2.72
2023-07-04T11:50:46.305Z,3.00
2023-07-04T11:53:17.060Z,2.75
2023-07-04T11:55:44.709Z,2.90
2023-07-04T11:58:11.271Z,3.10
2023-07-04T12:00:40.449Z,3.03
2023-07-04T12:03:19.732Z,2.80
2023-07-04T12:08:35.617Z,2.80
2023-07-04T12:11:10.261Z,2.55
2023-07-04T12:13:40.237Z,2.15
2023-07-04T12:16:07.428Z,2.33
2023-07-04T12:18:36.047Z,2.92
2023-07-04T12:21:02.804Z,2.78
2023-07-04T12:23:30.291Z,2.90
2023-07-04T12:26:01.235Z,3.03
2023-07-04T12:28:32.581Z,2.65
2023-07-04T12:33:45.518Z,2.80
2023-07-04T12:36:16.633Z,2.65
2023-07-04T12:38:51.385Z,2.35
2023-07-04T12:41:22.186Z,2.65
2023-07-04T12:51:47.169Z,2.75
2023-07-04T12:54:16.469Z,3.00
2023-07-04T12:56:46.002Z,2.20
2023-07-04T12:59:33.758Z,3.00
2023-07-04T13:02:05.669Z,2.88
2023-07-04T13:04:34.205Z,2.53
2023-07-04T13:07:00.880Z,2.10
2023-07-04T13:09:27.741Z,2.38
2023-07-04T13:11:54.611Z,2.50
2023-07-04T13:14:29.064Z,3.03
2023-07-04T13:17:13.219Z,2.45
2023-07-04T13:19:44.902Z,2.60
2023-07-04T13:22:17.180Z,2.88
2023-07-04T13:24:58.571Z,2.67
2023-07-04T13:27:30.660Z,2.53
2023-07-04T13:35:36.856Z,3.25
2023-07-04T13:40:34.906Z,2.38
2023-07-04T13:45:41.857Z,3.05
2023-07-04T13:48:09.011Z,2.58
2023-07-04T13:50:36.344Z,2.90
2023-07-04T13:55:41.403Z,2.30
2023-07-04T13:58:08.188Z,2.13
2023-07-04T14:00:40.976Z,2.60
2023-07-04T14:05:56.713Z,2.50
2023-07-04T14:08:25.140Z,2.47
2023-07-04T14:11:01.920Z,2.53
2023-07-04T14:13:29.139Z,2.63
2023-07-04T14:21:05.560Z,2.25
2023-07-04T14:23:32.466Z,2.20
2023-07-04T14:25:59.128Z,2.22
2023-07-04T14:28:25.963Z,2.72
2023-07-04T14:30:55.487Z,2.03
2023-07-04T14:33:22.827Z,2.70
2023-07-04T14:35:50.126Z,2.22
2023-07-04T14:38:17.710Z,2.33
2023-07-04T14:43:13.968Z,2.17
2023-07-04T14:45:40.559Z,2.03
2023-07-04T14:48:07.354Z,2.40
2023-07-04T14:50:34.472Z,2.60
2023-07-04T14:53:01.256Z,2.30
2023-07-04T14:55:27.815Z,2.47
2023-07-04T14:57:55.333Z,2.13
2023-07-04T15:00:23.782Z,2.63
2023-07-04T15:02:50.781Z,2.63
2023-07-04T15:05:17.624Z,2.20
2023-07-04T15:07:44.914Z,2.30
2023-07-04T15:10:11.976Z,2.53
2023-07-04T15:12:38.806Z,2.80
2023-07-04T15:15:06.113Z,4.05
2023-07-04T15:19:59.348Z,3.25
2023-07-04T15:22:25.920Z,3.08
2023-07-04T15:24:52.589Z,3.22
2023-07-04T15:27:19.162Z,2.88
2023-07-04T15:29:45.737Z,2.92
2023-07-04T15:32:12.310Z,2.60
2023-07-04T15:34:40.671Z,2.58
2023-07-04T15:37:09.148Z,2.97
2023-07-04T15:39:36.261Z,2.55
2023-07-04T15:42:03.150Z,2.60
2023-07-04T15:44:30.054Z,2.25
2023-07-04T15:46:57.083Z,2.22
2023-07-04T15:49:23.710Z,2.58
2023-07-04T15:51:57.162Z,2.83
2023-07-04T15:56:52.112Z,1.92
2023-07-04T16:01:46.013Z,2.05
2023-07-04T16:06:42.100Z,2.25
2023-07-04T16:09:09.384Z,2.28
2023-07-04T16:11:38.268Z,2.25
2023-07-04T16:14:05.812Z,2.25
2023-07-04T16:16:33.432Z,2.42
2023-07-04T16:19:00.208Z,1.92
2023-07-04T16:21:26.965Z,1.88
2023-07-04T16:23:53.672Z,2.13
2023-07-04T16:26:20.235Z,2.28
2023-07-04T16:28:46.850Z,2.22
2023-07-04T16:31:13.518Z,2.17
2023-07-04T16:33:40.689Z,2.88
2023-07-04T16:36:07.333Z,2.17
2023-07-04T16:38:34.353Z,2.35
2023-07-04T16:41:01.349Z,2.10
2023-07-04T16:43:28.295Z,1.83
2023-07-04T16:45:58.204Z,1.98
2023-07-04T16:48:25.364Z,2.20
2023-07-04T16:50:55.387Z,1.80
2023-07-04T16:53:22.018Z,2.10
2023-07-04T16:55:55.384Z,2.00
2023-07-04T17:00:48.506Z,2.00
2023-07-04T17:03:16.172Z,2.17
2023-07-04T17:05:43.822Z,2.15
2023-07-04T17:08:10.825Z,2.13
2023-07-04T17:10:38.191Z,1.98
2023-07-04T17:15:31.920Z,1.98
2023-07-04T17:17:58.643Z,1.90
2023-07-04T17:20:25.209Z,1.98
2023-07-04T17:22:51.822Z,2.70
2023-07-04T17:25:19.125Z,2.00
2023-07-04T17:27:45.838Z,2.20
2023-07-04T17:30:12.578Z,2.33
2023-07-04T17:32:39.200Z,1.92
2023-07-04T17:35:07.232Z,2.00
2023-07-04T17:37:34.308Z,1.90
2023-07-04T17:40:01.123Z,1.77
2023-07-04T17:42:30.460Z,1.92
2023-07-04T17:44:58.504Z,1.77
2023-07-04T17:47:25.269Z,1.70
2023-07-04T17:49:51.906Z,1.60
2023-07-04T17:52:18.466Z,1.77
2023-07-04T17:54:45.253Z,1.60
2023-07-04T17:57:26.188Z,1.80
2023-07-04T17:59:54.664Z,1.80
2023-07-04T18:02:21.976Z,1.52
2023-07-04T18:04:48.938Z,1.80
2023-07-04T18:07:16.324Z,1.83
2023-07-04T18:12:24.884Z,1.50
2023-07-04T18:14:53.108Z,1.60
2023-07-04T18:17:19.861Z,1.50
2023-07-04T18:19:46.729Z,1.98
2023-07-04T18:22:13.708Z,1.70
2023-07-04T18:24:40.670Z,1.58
2023-07-04T18:27:07.381Z,1.60
2023-07-04T18:29:34.769Z,1.77
2023-07-04T18:34:30.500Z,1.40
2023-07-04T18:36:57.338Z,1.45
2023-07-04T18:39:24.100Z,1.13
2023-07-04T18:41:51.087Z,1.50
2023-07-04T18:44:17.858Z,1.38
2023-07-04T18:46:45.604Z,1.90
2023-07-04T18:49:17.486Z,1.70
2023-07-04T18:51:44.336Z,1.25
2023-07-04T18:54:16.285Z,1.20
2023-07-04T18:56:44.461Z,1.45
2023-07-04T18:59:12.531Z,1.65
2023-07-04T19:01:39.707Z,1.00
2023-07-04T19:04:06.613Z,1.67
2023-07-04T19:06:35.604Z,1.13
2023-07-04T19:09:02.762Z,1.40
2023-07-04T19:11:30.645Z,1.08
2023-07-04T19:14:11.292Z,1.15
2023-07-04T19:16:42.757Z,1.30
2023-07-04T19:19:11.181Z,1.40
2023-07-04T19:21:39.313Z,1.20
2023-07-04T19:24:06.668Z,1.33
2023-07-04T19:26:36.127Z,1.20
2023-07-04T19:29:04.078Z,1.25
2023-07-04T19:31:30.780Z,1.35
2023-07-04T19:33:58.646Z,1.20
2023-07-04T19:36:25.351Z,1.35
2023-07-04T19:38:51.994Z,1.40
2023-07-04T19:41:18.543Z,1.42
2023-07-04T19:43:45.223Z,1.48
2023-07-04T19:46:11.939Z,1.02
2023-07-04T19:48:38.808Z,1.40
2023-07-04T19:51:11.419Z,1.48
2023-07-04T19:53:40.446Z,1.10
2023-07-04T19:56:10.478Z,1.30
2023-07-04T19:58:37.876Z,1.40
2023-07-04T20:03:36.902Z,0.95
2023-07-04T20:06:05.370Z,1.13
2023-07-04T20:08:32.720Z,1.00
2023-07-04T20:10:59.488Z,1.23
2023-07-04T20:13:29.467Z,1.10
2023-07-04T20:15:58.515Z,1.20
2023-07-04T20:18:25.671Z,1.23
2023-07-04T20:20:56.139Z,1.25
2023-07-04T20:23:23.245Z,0.98
2023-07-04T20:25:54.809Z,1.27
2023-07-04T20:28:23.569Z,1.10
2023-07-04T20:30:56.437Z,1.10
2023-07-04T20:33:25.413Z,1.33
2023-07-04T20:35:53.310Z,1.20
2023-07-04T20:38:20.760Z,1.08
2023-07-04T20:40:47.786Z,1.50
2023-07-04T20:43:15.972Z,1.25
2023-07-04T20:45:43.015Z,1.23
2023-07-04T20:48:11.265Z,1.25
2023-07-04T20:50:39.203Z,1.20
2023-07-04T20:53:06.675Z,1.45
2023-07-04T20:58:07.441Z,1.20
2023-07-04T21:00:35.083Z,1.35
2023-07-04T21:03:02.007Z,1.63
2023-07-04T21:05:28.868Z,1.15
2023-07-04T21:07:56.658Z,1.15
2023-07-04T21:10:27.703Z,0.90
2023-07-04T21:12:58.356Z,1.27
2023-07-04T21:15:27.201Z,1.20
2023-07-04T21:17:55.386Z,0.95
2023-07-04T21:20:23.025Z,1.02
2023-07-04T21:22:50.287Z,0.90
2023-07-04T21:25:17.566Z,1.00
2023-07-04T21:27:44.547Z,0.90
2023-07-04T21:30:11.638Z,0.95
2023-07-04T21:32:38.557Z,1.00
2023-07-04T21:35:05.769Z,1.10
2023-07-04T21:37:32.480Z,0.95
2023-07-04T21:39:59.060Z,0.90
2023-07-04T21:42:25.607Z,1.13
2023-07-04T21:44:55.657Z,1.15
2023-07-04T21:47:22.414Z,1.15
2023-07-04T21:49:50.231Z,0.90
2023-07-04T21:52:17.306Z,1.20
2023-07-04T21:54:45.505Z,1.10
2023-07-04T21:57:12.995Z,1.00
2023-07-04T21:59:39.549Z,0.80
2023-07-04T22:02:06.699Z,0.90
2023-07-04T22:04:33.411Z,0.85
2023-07-04T22:07:00.016Z,0.90
2023-07-04T22:09:26.939Z,1.00
2023-07-04T22:11:53.679Z,0.70
2023-07-04T22:14:35.647Z,1.00
2023-07-04T22:17:05.649Z,1.00
2023-07-04T22:19:32.495Z,0.80
2023-07-04T22:21:59.284Z,0.93
2023-07-04T22:24:27.660Z,1.00
2023-07-04T22:26:54.536Z,0.80
2023-07-04T22:29:21.425Z,0.90
2023-07-04T22:31:47.950Z,0.88
2023-07-04T22:34:14.907Z,1.15
2023-07-04T22:36:41.937Z,1.10
2023-07-04T22:39:09.656Z,0.70
2023-07-04T22:41:36.821Z,0.75
2023-07-04T22:44:03.458Z,0.85
2023-07-04T22:46:30.684Z,0.88
2023-07-04T22:51:24.751Z,0.77
2023-07-04T22:53:52.396Z,0.90
2023-07-04T22:56:19.795Z,0.80
2023-07-04T22:58:47.041Z,0.80
2023-07-04T23:01:18.239Z,0.90
2023-07-04T23:03:45.069Z,0.88
2023-07-04T23:06:12.860Z,0.90
2023-07-04T23:08:40.446Z,1.00
2023-07-04T23:11:07.333Z,0.90
2023-07-04T23:13:34.411Z,0.70
2023-07-04T23:16:05.293Z,0.70
2023-07-04T23:18:32.308Z,1.05
2023-07-04T23:20:59.470Z,0.80
2023-07-04T23:23:26.649Z,0.85
2023-07-04T23:25:53.706Z,0.80
2023-07-04T23:28:20.656Z,0.80
2023-07-04T23:30:47.352Z,0.55
2023-07-04T23:33:13.949Z,0.60
2023-07-04T23:35:40.493Z,0.68
2023-07-04T23:38:07.040Z,0.88
2023-07-04T23:40:33.616Z,1.05
2023-07-04T23:43:00.365Z,0.70
2023-07-04T23:45:26.912Z,0.65
2023-07-04T23:47:53.504Z,0.88
2023-07-04T23:50:20.198Z,1.00
2023-07-04T23:52:47.027Z,0.80
2023-07-04T23:55:13.664Z,0.68
2023-07-04T23:57:40.227Z,0.85
